Flugplatz Erfurt

Bericht für EDDE

vom 26.07. um 15:20 UTC

Wind 5 kt aus 150°

Sichtweite 10 km oder mehr

gering bewölkt in 5000 ft

Temperatur 22.0°C

Taupunkt 17.0°C

Luftfeuchtigkeit 73%

Luftdruck 1012 hPa

keine wesentliche Wetteränderung innerhalb den nächsten 2 Stunden zu erwarten

EDDE 261520Z 15005KT 110V190 9999 FEW050CB 22/17 Q1012 NOSIG

Prognose für EDDE

vom 26.07. um 11:00 UTC

Zwischen 12:00 UTC und 15:00 UTC

Wind 6 kt aus 220°

Sichtweite 10 km oder mehr

aufgelockert bewölkt in 2000 ft


Zwischen 13:00 UTC und 19:00 UTC zeitweise

Sichtweite 4500 m

Code: TSRA


Zwischen 15:00 und 17:00 UTC übergehend zu

Wind 6 kt aus 220°

Sichtweite 10 km oder mehr

keine Wolken


Am 27.07. zwischen 06:00 und 09:00 UTC übergehend zu

Wind 11 kt aus 240°

Sichtweite 10 km oder mehr

keine Wolken

TAF EDDE 261100Z 2612/2712 22006KT 9999 SCT020CB TEMPO 2613/2619 4500 TSRA BECMG 2615/2617 NSC BECMG 2706/2709 24011KT
Impressum